createdAt,value
2019-03-16T00:01:56.707Z,12.53
2019-03-16T00:04:14.959Z,12.23
2019-03-16T00:06:43.425Z,7.55
2019-03-16T00:09:12.049Z,8.53
2019-03-16T00:11:40.474Z,9.45
2019-03-16T00:14:09.163Z,8.85
2019-03-16T00:16:37.554Z,7.78
2019-03-16T00:19:08.132Z,12.63
2019-03-16T00:21:36.525Z,12.23
2019-03-16T00:24:05.143Z,11.28
2019-03-16T00:26:33.559Z,13.48
2019-03-16T00:29:01.987Z,8.73
2019-03-16T00:31:30.397Z,10.08
2019-03-16T00:33:58.797Z,18.73
2019-03-16T00:36:27.189Z,8.90
2019-03-16T00:38:55.602Z,10.40
2019-03-16T00:41:24.236Z,11.30
2019-03-16T00:43:52.872Z,13.75
2019-03-16T00:46:21.267Z,10.23
2019-03-16T00:48:49.666Z,17.98
2019-03-16T00:51:18.056Z,12.95
2019-03-16T00:53:46.516Z,10.68
2019-03-16T00:56:15.156Z,14.65
2019-03-16T00:58:43.609Z,14.38
2019-03-16T01:01:12.400Z,10.78
2019-03-16T01:03:40.798Z,12.53
2019-03-16T01:06:09.499Z,8.88
2019-03-16T01:08:37.889Z,6.72
2019-03-16T01:11:06.290Z,9.98
2019-03-16T01:13:35.364Z,8.75
2019-03-16T01:16:03.856Z,8.35
2019-03-16T01:18:33.041Z,8.75
2019-03-16T01:21:01.993Z,18.70
2019-03-16T01:23:30.556Z,8.38
2019-03-16T01:25:59.142Z,12.53
2019-03-16T01:28:28.334Z,8.45
2019-03-16T01:30:57.006Z,8.50
2019-03-16T01:33:29.087Z,16.25
2019-03-16T01:35:57.622Z,10.55
2019-03-16T01:38:27.351Z,5.08
2019-03-16T01:40:56.092Z,6.30
2019-03-16T01:43:24.895Z,17.45
2019-03-16T01:45:53.478Z,5.35
2019-03-16T01:48:21.854Z,9.55
2019-03-16T01:50:50.476Z,5.75
2019-03-16T01:53:19.238Z,6.53
2019-03-16T01:55:48.019Z,14.03
2019-03-16T01:58:16.481Z,5.20
2019-03-16T02:00:45.007Z,10.55
2019-03-16T02:03:13.726Z,9.68
2019-03-16T02:05:44.838Z,8.73
2019-03-16T02:08:13.475Z,11.55
2019-03-16T02:10:41.945Z,11.10
2019-03-16T02:13:10.662Z,9.78
2019-03-16T02:15:41.245Z,5.80
2019-03-16T02:18:10.531Z,6.65
2019-03-16T02:20:39.120Z,12.23
2019-03-16T02:23:07.593Z,4.72
2019-03-16T02:25:36.388Z,10.68
2019-03-16T02:28:04.859Z,4.42
2019-03-16T02:30:33.320Z,7.60
2019-03-16T02:33:12.827Z,9.05
2019-03-16T02:35:32.361Z,6.47
2019-03-16T02:38:00.833Z,11.93
2019-03-16T02:40:29.273Z,18.90
2019-03-16T02:42:57.747Z,6.53
2019-03-16T02:45:26.157Z,8.65
2019-03-16T02:47:54.590Z,11.88
2019-03-16T02:50:23.303Z,10.72
2019-03-16T02:52:51.771Z,13.88
2019-03-16T02:55:20.225Z,8.58
2019-03-16T02:57:48.850Z,8.55
2019-03-16T03:00:17.627Z,4.42
2019-03-16T03:02:46.630Z,6.85
2019-03-16T03:05:15.412Z,7.50
2019-03-16T03:07:44.166Z,5.62
2019-03-16T03:10:14.284Z,6.75
2019-03-16T03:12:43.174Z,11.57
2019-03-16T03:15:13.450Z,5.62
2019-03-16T03:17:42.020Z,11.50
2019-03-16T03:20:11.331Z,6.30
2019-03-16T03:22:39.964Z,6.15
2019-03-16T03:25:08.709Z,9.60
2019-03-16T03:27:37.453Z,4.65
2019-03-16T03:30:09.199Z,6.80
2019-03-16T03:32:37.678Z,5.70
2019-03-16T03:35:07.978Z,6.83
2019-03-16T03:37:36.360Z,6.50
2019-03-16T03:40:08.007Z,5.70
2019-03-16T03:42:39.049Z,6.65
2019-03-16T03:45:12.318Z,3.70
2019-03-16T03:47:40.844Z,5.60
2019-03-16T03:50:12.615Z,5.90
2019-03-16T03:52:41.298Z,6.60
2019-03-16T03:55:13.723Z,3.52
2019-03-16T03:57:42.523Z,6.45
2019-03-16T04:00:18.096Z,2.55
2019-03-16T04:02:46.661Z,3.42
2019-03-16T04:05:15.138Z,6.90
2019-03-16T04:07:43.623Z,7.30
2019-03-16T04:10:12.179Z,4.30
2019-03-16T04:12:40.573Z,3.10
2019-03-16T04:15:13.020Z,2.98
2019-03-16T04:17:41.537Z,7.55
2019-03-16T04:20:14.244Z,3.05
2019-03-16T04:22:42.704Z,7.30
2019-03-16T04:25:11.260Z,5.05
2019-03-16T04:27:39.659Z,9.25
2019-03-16T04:30:12.839Z,3.85
2019-03-16T04:32:41.294Z,4.67
2019-03-16T04:35:09.723Z,3.12
2019-03-16T04:37:38.351Z,4.53
2019-03-16T04:40:08.990Z,3.98
2019-03-16T04:42:37.390Z,5.25
2019-03-16T04:45:08.186Z,3.35
2019-03-16T04:47:36.585Z,5.05
2019-03-16T04:50:10.046Z,4.08
2019-03-16T04:52:38.442Z,3.15
2019-03-16T04:55:08.686Z,5.75
2019-03-16T04:57:37.074Z,5.03
2019-03-16T05:00:08.553Z,3.37
2019-03-16T05:02:36.984Z,2.65
2019-03-16T05:05:06.194Z,3.25
2019-03-16T05:07:34.628Z,4.90
2019-03-16T05:10:03.368Z,6.90
2019-03-16T05:12:31.775Z,2.52
2019-03-16T05:15:00.390Z,3.40
2019-03-16T05:17:29.004Z,3.33
2019-03-16T05:19:57.399Z,3.62
2019-03-16T05:22:26.031Z,3.25
2019-03-16T05:24:54.433Z,3.45
2019-03-16T05:27:22.835Z,4.87
2019-03-16T05:29:51.301Z,4.22
2019-03-16T05:32:19.943Z,3.67
2019-03-16T05:34:56.296Z,3.83
2019-03-16T05:37:18.475Z,3.70
2019-03-16T05:39:46.872Z,3.52
2019-03-16T05:42:15.282Z,3.70
2019-03-16T05:44:43.903Z,3.77
2019-03-16T05:47:12.295Z,3.70
2019-03-16T05:49:40.693Z,3.75
2019-03-16T05:52:09.083Z,3.72
2019-03-16T05:54:37.477Z,4.78
2019-03-16T05:57:05.878Z,2.90
2019-03-16T05:59:34.282Z,3.87
2019-03-16T06:02:02.702Z,5.05
2019-03-16T06:04:31.095Z,4.17
2019-03-16T06:06:59.486Z,4.58
2019-03-16T06:09:27.879Z,3.22
2019-03-16T06:11:56.301Z,3.30
2019-03-16T06:14:24.694Z,3.50
2019-03-16T06:16:53.090Z,3.50
2019-03-16T06:19:21.598Z,3.40
2019-03-16T06:21:50.259Z,3.58
2019-03-16T06:24:18.716Z,6.53
2019-03-16T06:26:47.101Z,4.55
2019-03-16T06:29:15.555Z,3.65
2019-03-16T06:31:44.187Z,2.58
2019-03-16T06:34:12.823Z,2.17
2019-03-16T06:36:41.245Z,3.87
2019-03-16T06:39:09.606Z,3.65
2019-03-16T06:41:38.001Z,4.20
2019-03-16T06:44:06.660Z,4.03
2019-03-16T06:46:35.289Z,3.02
2019-03-16T06:49:03.678Z,2.42
2019-03-16T06:51:32.126Z,5.80
2019-03-16T06:54:00.569Z,6.10
2019-03-16T06:56:28.973Z,3.77
2019-03-16T06:58:58.569Z,2.90
2019-03-16T07:01:28.963Z,4.78
2019-03-16T07:03:57.382Z,3.80
2019-03-16T07:06:25.804Z,2.83
2019-03-16T07:08:54.365Z,2.33
2019-03-16T07:11:22.805Z,2.52
2019-03-16T07:13:51.202Z,1.72
2019-03-16T07:16:19.843Z,1.85
2019-03-16T07:18:58.381Z,2.15
2019-03-16T07:21:18.398Z,2.10
2019-03-16T07:23:46.799Z,2.10
2019-03-16T07:26:15.479Z,1.90
2019-03-16T07:28:44.230Z,3.17
2019-03-16T07:31:12.618Z,4.42
2019-03-16T07:33:41.019Z,2.35
2019-03-16T07:36:11.077Z,2.65
2019-03-16T07:38:39.766Z,3.02
2019-03-16T07:41:08.436Z,3.70
2019-03-16T07:46:24.541Z,2.30
2019-03-16T07:48:54.533Z,1.95
2019-03-16T07:51:23.034Z,1.90
2019-03-16T07:53:51.430Z,2.65
2019-03-16T07:56:21.846Z,1.90
2019-03-16T07:58:51.862Z,1.30
2019-03-16T08:01:21.310Z,1.35
2019-03-16T08:03:49.733Z,1.00
2019-03-16T08:06:18.126Z,0.93
2019-03-16T08:08:46.530Z,1.35
2019-03-16T08:11:15.215Z,1.35
2019-03-16T08:13:45.123Z,0.70
2019-03-16T08:16:16.486Z,2.60
2019-03-16T08:18:44.886Z,1.00
2019-03-16T08:21:13.315Z,1.10
2019-03-16T08:23:41.707Z,1.47
2019-03-16T08:26:10.134Z,2.15
2019-03-16T08:28:38.528Z,0.90
2019-03-16T08:31:07.175Z,3.92
2019-03-16T08:33:35.590Z,0.88
2019-03-16T08:36:04.277Z,1.47
2019-03-16T08:38:32.771Z,4.58
2019-03-16T08:41:01.423Z,1.50
2019-03-16T08:43:29.848Z,7.45
2019-03-16T08:46:01.298Z,1.17
2019-03-16T08:48:29.697Z,1.70
2019-03-16T08:50:58.095Z,0.85
2019-03-16T08:53:26.498Z,2.50
2019-03-16T08:55:55.106Z,0.70
2019-03-16T08:58:23.519Z,0.80
2019-03-16T09:00:57.901Z,0.65
2019-03-16T09:03:26.554Z,1.72
2019-03-16T09:05:55.047Z,0.98
2019-03-16T09:08:23.498Z,0.60
2019-03-16T09:10:51.887Z,1.30
2019-03-16T09:13:20.534Z,0.90
2019-03-16T09:15:48.946Z,0.55
2019-03-16T09:18:17.355Z,0.85
2019-03-16T09:20:45.762Z,1.45
2019-03-16T09:23:14.178Z,2.58
2019-03-16T09:25:42.823Z,0.45
2019-03-16T09:28:18.591Z,0.70
2019-03-16T09:30:41.354Z,1.25
2019-03-16T09:33:09.813Z,0.70
2019-03-16T09:35:38.489Z,1.52
2019-03-16T09:38:06.910Z,1.25
2019-03-16T09:40:35.404Z,1.60
2019-03-16T09:43:03.782Z,2.20
2019-03-16T09:45:32.562Z,4.67
2019-03-16T09:48:00.975Z,0.60
2019-03-16T09:50:29.446Z,1.90
2019-03-16T09:52:57.856Z,2.90
2019-03-16T09:55:26.276Z,1.45
2019-03-16T09:57:54.729Z,1.60
2019-03-16T10:00:23.188Z,0.98
2019-03-16T10:02:51.842Z,3.05
2019-03-16T10:05:20.496Z,3.10
2019-03-16T10:07:49.209Z,1.17
2019-03-16T10:10:17.715Z,5.10
2019-03-16T10:12:46.274Z,4.95
2019-03-16T10:15:15.043Z,2.27
2019-03-16T10:17:43.517Z,1.55
2019-03-16T10:20:15.126Z,3.10
2019-03-16T10:22:43.637Z,3.75
2019-03-16T10:25:12.138Z,0.90
2019-03-16T10:27:40.618Z,1.67
2019-03-16T10:30:13.381Z,2.50
2019-03-16T10:32:41.783Z,6.10
2019-03-16T10:35:10.443Z,2.53
2019-03-16T10:37:40.921Z,1.87
2019-03-16T10:40:12.409Z,1.00
2019-03-16T10:42:40.890Z,1.37
2019-03-16T10:45:11.539Z,5.80
2019-03-16T10:47:40.279Z,2.53
2019-03-16T10:50:11.039Z,8.60
2019-03-16T10:52:39.538Z,2.43
2019-03-16T10:55:08.635Z,4.50
2019-03-16T10:57:37.041Z,5.20
2019-03-16T11:00:08.553Z,4.00
2019-03-16T11:02:37.205Z,1.73
2019-03-16T11:05:14.937Z,5.00
2019-03-16T11:07:43.373Z,3.75
2019-03-16T11:10:13.219Z,3.33
2019-03-16T11:12:41.667Z,2.55
2019-03-16T11:15:11.358Z,1.50
2019-03-16T11:17:39.766Z,2.27
2019-03-16T11:20:10.437Z,3.45
2019-03-16T11:22:38.865Z,1.00
2019-03-16T11:25:07.923Z,3.67
2019-03-16T11:27:36.415Z,1.62
2019-03-16T11:30:07.898Z,1.10
2019-03-16T11:32:36.326Z,2.02
2019-03-16T11:35:06.800Z,1.77
2019-03-16T11:37:35.288Z,1.25
2019-03-16T11:40:04.638Z,1.10
2019-03-16T11:42:33.077Z,1.05
2019-03-16T11:45:01.796Z,0.93
2019-03-16T11:47:30.233Z,0.80
2019-03-16T11:49:58.934Z,1.22
2019-03-16T11:52:27.325Z,2.15
2019-03-16T11:54:56.054Z,1.20
2019-03-16T11:57:24.469Z,2.80
2019-03-16T11:59:52.864Z,2.65
2019-03-16T12:02:21.266Z,0.80
2019-03-16T12:04:56.037Z,1.27
2019-03-16T12:07:24.438Z,1.27
2019-03-16T12:09:52.841Z,1.40
2019-03-16T12:12:21.494Z,1.82
2019-03-16T12:14:49.899Z,0.88
2019-03-16T12:17:18.364Z,2.10
2019-03-16T12:19:46.761Z,0.60
2019-03-16T12:22:15.434Z,1.25
2019-03-16T12:24:43.838Z,0.70
2019-03-16T12:27:12.563Z,1.35
2019-03-16T12:29:41.008Z,0.68
2019-03-16T12:32:09.656Z,3.67
2019-03-16T12:34:38.059Z,3.42
2019-03-16T12:37:06.719Z,0.60
2019-03-16T12:39:35.773Z,0.70
2019-03-16T12:42:04.321Z,1.22
2019-03-16T12:44:32.737Z,1.47
2019-03-16T12:47:01.143Z,2.37
2019-03-16T12:49:29.559Z,1.40
2019-03-16T12:51:57.962Z,3.42
2019-03-16T12:54:26.637Z,1.05
2019-03-16T12:56:55.306Z,1.77
2019-03-16T12:59:24.027Z,1.10
2019-03-16T13:01:52.495Z,1.17
2019-03-16T13:04:20.944Z,0.88
2019-03-16T13:06:49.386Z,1.30
2019-03-16T13:09:54.393Z,1.50
2019-03-16T13:12:23.051Z,1.62
2019-03-16T13:14:51.454Z,1.80
2019-03-16T13:17:23.018Z,0.60
2019-03-16T13:19:51.422Z,2.90
2019-03-16T13:22:19.902Z,1.43
2019-03-16T13:24:48.326Z,1.02
2019-03-16T13:27:16.725Z,2.67
2019-03-16T13:29:45.134Z,0.70
2019-03-16T13:32:14.472Z,1.32
2019-03-16T13:34:42.873Z,2.42
2019-03-16T13:37:11.519Z,2.80
2019-03-16T13:39:39.932Z,1.25
2019-03-16T13:42:14.538Z,9.30
2019-03-16T13:44:42.946Z,1.65
2019-03-16T13:47:11.614Z,0.80
2019-03-16T13:49:40.152Z,4.62
2019-03-16T13:52:08.589Z,4.67
2019-03-16T13:54:37.699Z,3.00
2019-03-16T13:57:06.128Z,2.50
2019-03-16T13:59:34.582Z,2.47
2019-03-16T14:02:05.197Z,1.55
2019-03-16T14:04:33.970Z,4.87
2019-03-16T14:07:02.381Z,4.00
2019-03-16T14:09:31.051Z,2.62
2019-03-16T14:11:59.634Z,1.90
2019-03-16T14:14:28.050Z,1.77
2019-03-16T14:16:56.479Z,2.25
2019-03-16T14:19:24.951Z,2.67
2019-03-16T14:21:53.358Z,1.30
2019-03-16T14:24:22.049Z,6.03
2019-03-16T14:26:50.482Z,1.65
2019-03-16T14:29:18.882Z,1.57
2019-03-16T14:32:05.541Z,2.52
2019-03-16T14:34:33.982Z,7.50
2019-03-16T14:37:02.386Z,4.12
2019-03-16T14:39:31.046Z,2.08
2019-03-16T14:41:59.446Z,3.52
2019-03-16T14:44:27.850Z,2.17
2019-03-16T14:46:56.254Z,2.30
2019-03-16T14:49:24.783Z,5.58
2019-03-16T14:51:53.157Z,2.90
2019-03-16T14:54:21.619Z,2.83
2019-03-16T14:56:50.118Z,1.75
2019-03-16T14:59:18.525Z,3.55
2019-03-16T15:01:46.942Z,5.22
2019-03-16T15:04:15.349Z,2.40
2019-03-16T15:06:43.767Z,7.05
2019-03-16T15:09:12.190Z,7.65
2019-03-16T15:11:40.623Z,3.25
2019-03-16T15:14:21.066Z,1.45
2019-03-16T15:16:42.161Z,3.12
2019-03-16T15:19:10.565Z,4.08
2019-03-16T15:21:38.992Z,5.85
2019-03-16T15:24:07.491Z,3.85
2019-03-16T15:26:35.958Z,6.08
2019-03-16T15:29:04.427Z,2.15
2019-03-16T15:31:32.837Z,8.38
2019-03-16T15:34:01.274Z,1.65
2019-03-16T15:36:29.682Z,1.90
2019-03-16T15:38:58.093Z,4.05
2019-03-16T15:41:26.505Z,4.42
2019-03-16T15:43:54.910Z,3.15
2019-03-16T15:46:23.329Z,3.90
2019-03-16T15:48:51.739Z,3.50
2019-03-16T15:51:20.178Z,2.58
2019-03-16T15:53:48.596Z,2.65
2019-03-16T15:56:17.017Z,3.12
2019-03-16T15:58:45.778Z,2.12
2019-03-16T16:01:14.433Z,5.25
2019-03-16T16:03:42.841Z,5.92
2019-03-16T16:06:11.335Z,2.80
2019-03-16T16:08:39.976Z,2.05
2019-03-16T16:11:14.295Z,2.20
2019-03-16T16:13:42.697Z,1.40
2019-03-16T16:16:11.138Z,3.83
2019-03-16T16:18:39.639Z,2.30
2019-03-16T16:21:08.054Z,2.22
2019-03-16T16:23:36.450Z,1.70
2019-03-16T16:26:05.014Z,3.92
2019-03-16T16:28:33.420Z,1.45
2019-03-16T16:31:02.046Z,2.83
2019-03-16T16:33:30.518Z,2.75
2019-03-16T16:35:59.025Z,4.50
2019-03-16T16:38:27.435Z,3.47
2019-03-16T16:40:55.834Z,9.63
2019-03-16T16:43:24.497Z,1.80
2019-03-16T16:45:53.194Z,3.22
2019-03-16T16:48:21.897Z,2.50
2019-03-16T16:50:50.302Z,4.15
2019-03-16T16:53:18.709Z,2.58
2019-03-16T16:55:47.245Z,3.47
2019-03-16T16:58:15.902Z,2.15
2019-03-16T17:00:44.570Z,1.50
2019-03-16T17:03:12.976Z,3.70
2019-03-16T17:05:43.323Z,3.40
2019-03-16T17:08:11.534Z,4.25
2019-03-16T17:10:40.162Z,5.30
2019-03-16T17:13:08.630Z,1.87
2019-03-16T17:15:37.297Z,1.80
2019-03-16T17:18:05.712Z,2.10
2019-03-16T17:20:34.105Z,5.78
2019-03-16T17:23:02.494Z,2.65
2019-03-16T17:25:30.914Z,2.10
2019-03-16T17:27:59.362Z,2.60
2019-03-16T17:30:29.862Z,3.00
2019-03-16T17:32:58.267Z,2.42
2019-03-16T17:35:26.663Z,1.87
2019-03-16T17:37:55.297Z,6.42
2019-03-16T17:40:23.770Z,3.35
2019-03-16T17:42:52.206Z,3.22
2019-03-16T17:45:20.886Z,2.50
2019-03-16T17:47:49.278Z,2.35
2019-03-16T17:50:17.770Z,3.72
2019-03-16T17:52:46.163Z,4.05
2019-03-16T17:55:19.096Z,4.70
2019-03-16T17:57:47.799Z,2.45
2019-03-16T18:00:18.192Z,8.03
2019-03-16T18:02:51.581Z,8.13
2019-03-16T18:05:17.054Z,11.88
2019-03-16T18:07:45.694Z,2.30
2019-03-16T18:10:23.595Z,2.90
2019-03-16T18:12:52.251Z,2.65
2019-03-16T18:15:21.307Z,3.92
2019-03-16T18:17:49.745Z,3.83
2019-03-16T18:20:18.893Z,5.50
2019-03-16T18:22:48.236Z,3.10
2019-03-16T18:25:16.976Z,3.72
2019-03-16T18:27:45.424Z,5.08
2019-03-16T18:30:16.889Z,3.47
2019-03-16T18:32:45.490Z,7.22
2019-03-16T18:35:13.874Z,3.67
2019-03-16T18:37:43.185Z,2.55
2019-03-16T18:40:13.927Z,4.35
2019-03-16T18:42:42.320Z,4.37
2019-03-16T18:45:16.318Z,4.90
2019-03-16T18:47:44.701Z,3.02
2019-03-16T18:50:13.177Z,2.37
2019-03-16T18:52:41.576Z,2.92
2019-03-16T18:55:12.974Z,2.02
2019-03-16T18:57:41.603Z,2.15
2019-03-16T19:00:30.921Z,4.85
2019-03-16T19:02:59.311Z,3.55
2019-03-16T19:05:27.704Z,4.05
2019-03-16T19:07:56.334Z,2.80
2019-03-16T19:10:24.724Z,3.17
2019-03-16T19:12:53.150Z,3.58
2019-03-16T19:15:21.541Z,5.05
2019-03-16T19:17:58.511Z,3.12
2019-03-16T19:20:30.347Z,4.70
2019-03-16T19:22:58.797Z,2.85
2019-03-16T19:25:27.201Z,2.02
2019-03-16T19:27:55.662Z,1.98
2019-03-16T19:30:24.065Z,4.22
2019-03-16T19:32:52.463Z,4.12
2019-03-16T19:35:21.135Z,3.33
2019-03-16T19:37:49.601Z,3.55
2019-03-16T19:40:19.154Z,7.05
2019-03-16T19:42:47.692Z,7.10
2019-03-16T19:45:17.053Z,3.10
2019-03-16T19:47:46.551Z,2.58
2019-03-16T19:50:16.016Z,5.53
2019-03-16T19:52:44.645Z,4.10
2019-03-16T19:55:14.331Z,5.12
2019-03-16T19:57:42.866Z,4.50
2019-03-16T20:00:16.884Z,4.75
2019-03-16T20:02:50.949Z,2.17
2019-03-16T20:05:16.623Z,2.67
2019-03-16T20:07:45.470Z,2.62
2019-03-16T20:10:16.084Z,2.08
2019-03-16T20:12:44.529Z,3.62
2019-03-16T20:15:14.308Z,3.52
2019-03-16T20:17:42.839Z,3.45
2019-03-16T20:20:17.633Z,3.60
2019-03-16T20:22:46.160Z,2.50
2019-03-16T20:25:16.082Z,2.70
2019-03-16T20:27:44.500Z,4.20
2019-03-16T20:30:14.189Z,6.70
2019-03-16T20:32:43.694Z,6.53
2019-03-16T20:38:00.881Z,2.65
2019-03-16T20:40:29.325Z,3.65
2019-03-16T20:45:45.946Z,2.80
2019-03-16T20:48:14.475Z,4.47
2019-03-16T20:50:43.233Z,4.00
2019-03-16T20:53:11.886Z,2.62
2019-03-16T20:55:40.506Z,3.85
2019-03-16T20:58:09.002Z,2.65
2019-03-16T21:00:37.851Z,6.50
2019-03-16T21:03:15.485Z,4.53
2019-03-16T21:05:36.373Z,2.05
2019-03-16T21:08:04.846Z,1.70
2019-03-16T21:10:33.324Z,4.70
2019-03-16T21:13:01.745Z,4.75
2019-03-16T21:15:30.408Z,3.10
2019-03-16T21:17:59.056Z,5.28
2019-03-16T21:20:27.695Z,7.03
2019-03-16T21:22:56.138Z,3.52
2019-03-16T21:25:24.844Z,4.00
2019-03-16T21:27:53.475Z,2.52
2019-03-16T21:30:22.572Z,3.00
2019-03-16T21:32:51.034Z,2.95
2019-03-16T21:35:19.520Z,7.55
2019-03-16T21:37:47.938Z,4.05
2019-03-16T21:40:16.649Z,4.83
2019-03-16T21:42:45.153Z,3.02
2019-03-16T21:45:14.342Z,3.95
2019-03-16T21:47:43.002Z,3.90
2019-03-16T21:50:15.321Z,7.92
2019-03-16T21:52:44.905Z,6.22
2019-03-16T21:55:14.604Z,7.17
2019-03-16T21:57:43.002Z,6.60
2019-03-16T22:00:13.303Z,7.35
2019-03-16T22:02:41.999Z,7.50
2019-03-16T22:05:10.800Z,6.10
2019-03-16T22:07:39.271Z,5.42
2019-03-16T22:10:16.039Z,3.27
2019-03-16T22:12:44.501Z,3.70
2019-03-16T22:15:13.822Z,7.33
2019-03-16T22:17:42.643Z,4.10
2019-03-16T22:20:13.214Z,3.72
2019-03-16T22:22:41.670Z,3.52
2019-03-16T22:25:11.736Z,5.35
2019-03-16T22:27:40.187Z,5.00
2019-03-16T22:30:14.033Z,7.97
2019-03-16T22:32:42.473Z,7.30
2019-03-16T22:35:11.110Z,5.78
2019-03-16T22:37:39.853Z,3.47
2019-03-16T22:40:13.210Z,6.50
2019-03-16T22:42:41.776Z,6.97
2019-03-16T22:45:11.599Z,5.35
2019-03-16T22:47:40.308Z,7.92
2019-03-16T22:50:17.004Z,5.10
2019-03-16T22:52:46.341Z,3.92
2019-03-16T22:55:16.112Z,5.03
2019-03-16T22:57:44.973Z,3.65
2019-03-16T23:00:16.819Z,6.05
2019-03-16T23:02:45.249Z,2.50
2019-03-16T23:05:13.707Z,4.97
2019-03-16T23:07:42.332Z,4.97
2019-03-16T23:10:11.872Z,4.20
2019-03-16T23:12:40.368Z,3.87
2019-03-16T23:15:10.200Z,2.67
2019-03-16T23:17:38.853Z,3.90
2019-03-16T23:20:08.677Z,6.17
2019-03-16T23:22:37.070Z,3.30
2019-03-16T23:25:07.801Z,2.75
2019-03-16T23:27:36.218Z,4.20
2019-03-16T23:30:06.557Z,2.40
2019-03-16T23:32:34.950Z,2.65
2019-03-16T23:35:03.672Z,2.12
2019-03-16T23:37:32.217Z,4.05
2019-03-16T23:40:00.613Z,2.00
2019-03-16T23:42:29.001Z,2.17
2019-03-16T23:44:57.416Z,3.33
2019-03-16T23:47:25.790Z,2.20
2019-03-16T23:49:54.456Z,2.47
2019-03-16T23:52:22.864Z,1.40
2019-03-16T23:54:54.306Z,2.12
2019-03-16T23:57:22.762Z,1.95
2019-03-16T23:59:51.163Z,1.80
